createdAt,value
2018-06-04T00:01:59.623Z,92.21
2018-06-04T00:04:27.089Z,91.63
2018-06-04T00:06:54.493Z,92.10
2018-06-04T00:09:21.923Z,91.09
2018-06-04T00:11:49.409Z,91.04
2018-06-04T00:14:16.792Z,91.67
2018-06-04T00:16:44.254Z,92.11
2018-06-04T00:19:11.708Z,92.23
2018-06-04T00:21:39.090Z,92.35
2018-06-04T00:24:06.442Z,92.44
2018-06-04T00:26:33.919Z,92.35
2018-06-04T00:29:01.257Z,91.90
2018-06-04T00:31:28.727Z,92.02
2018-06-04T00:33:56.057Z,92.78
2018-06-04T00:36:23.501Z,91.89
2018-06-04T00:38:50.878Z,91.26
2018-06-04T00:41:18.277Z,91.98
2018-06-04T00:43:45.674Z,91.94
2018-06-04T00:46:13.098Z,91.33
2018-06-04T00:48:40.494Z,91.92
2018-06-04T00:51:07.953Z,91.93
2018-06-04T00:53:35.397Z,91.74
2018-06-04T00:56:13.898Z,92.49
2018-06-04T00:58:41.289Z,92.83
2018-06-04T01:01:08.751Z,92.52
2018-06-04T01:03:36.143Z,92.51
2018-06-04T01:06:03.549Z,92.65
2018-06-04T01:08:30.918Z,92.78
2018-06-04T01:10:58.382Z,92.82
2018-06-04T01:13:25.884Z,92.99
2018-06-04T01:15:53.254Z,92.90
2018-06-04T01:18:21.077Z,92.23
2018-06-04T01:20:48.521Z,93.07
2018-06-04T01:23:16.049Z,93.08
2018-06-04T01:25:43.605Z,91.87
2018-06-04T01:28:11.035Z,92.75
2018-06-04T01:30:38.504Z,93.05
2018-06-04T01:33:07.227Z,92.43
2018-06-04T01:35:34.894Z,92.64
2018-06-04T01:38:02.311Z,91.97
2018-06-04T01:40:29.796Z,92.66
2018-06-04T01:42:57.139Z,93.29
2018-06-04T01:45:24.529Z,93.66
2018-06-04T01:47:51.937Z,93.88
2018-06-04T01:50:19.302Z,93.34
2018-06-04T01:52:46.747Z,91.58
2018-06-04T01:55:14.128Z,92.45
2018-06-04T01:57:42.088Z,93.25
2018-06-04T02:00:10.331Z,93.17
2018-06-04T02:02:38.533Z,93.22
2018-06-04T02:05:05.991Z,93.80
2018-06-04T02:07:33.468Z,93.46
2018-06-04T02:10:00.830Z,93.36
2018-06-04T02:12:28.252Z,93.51
2018-06-04T02:14:55.625Z,92.48
2018-06-04T02:17:23.164Z,92.38
2018-06-04T02:19:50.537Z,92.97
2018-06-04T02:22:17.913Z,92.77
2018-06-04T02:24:45.401Z,92.36
2018-06-04T02:27:12.821Z,93.18
2018-06-04T02:29:40.232Z,92.99
2018-06-04T02:32:08.491Z,93.27
2018-06-04T02:34:35.980Z,92.85
2018-06-04T02:37:04.060Z,92.16
2018-06-04T02:39:31.447Z,91.90
2018-06-04T02:41:58.785Z,92.47
2018-06-04T02:44:26.554Z,92.07
2018-06-04T02:46:54.015Z,92.05
2018-06-04T02:49:22.313Z,91.54
2018-06-04T02:51:49.794Z,91.90
2018-06-04T02:54:17.170Z,91.92
2018-06-04T02:56:44.694Z,91.28
2018-06-04T02:59:12.161Z,91.89
2018-06-04T03:01:39.522Z,91.72
2018-06-04T03:04:06.903Z,91.71
2018-06-04T03:06:34.754Z,91.50
2018-06-04T03:09:02.391Z,92.10
2018-06-04T03:11:29.738Z,91.99
2018-06-04T03:13:57.194Z,92.65
2018-06-04T03:16:24.591Z,92.42
2018-06-04T03:18:52.624Z,91.95
2018-06-04T03:21:20.002Z,91.57
2018-06-04T03:23:47.389Z,91.84
2018-06-04T03:26:14.803Z,90.94
2018-06-04T03:28:42.266Z,92.18
2018-06-04T03:31:10.448Z,92.61
2018-06-04T03:33:38.032Z,91.74
2018-06-04T03:36:06.146Z,91.25
2018-06-04T03:38:33.563Z,91.60
2018-06-04T03:41:01.096Z,91.61
2018-06-04T03:43:28.516Z,92.04
2018-06-04T03:45:55.912Z,92.57
2018-06-04T03:48:23.610Z,93.25
2018-06-04T03:50:51.875Z,92.40
2018-06-04T03:53:19.318Z,92.25
2018-06-04T03:55:46.700Z,92.92
2018-06-04T03:58:14.070Z,93.18
2018-06-04T04:00:42.241Z,92.70
2018-06-04T04:03:09.706Z,93.27
2018-06-04T04:05:37.083Z,93.26
2018-06-04T04:08:04.480Z,93.49
2018-06-04T04:10:36.055Z,92.92
2018-06-04T04:13:03.462Z,93.63
2018-06-04T04:15:30.861Z,93.20
2018-06-04T04:17:58.283Z,93.81
2018-06-04T04:20:26.022Z,93.75
2018-06-04T04:22:53.463Z,93.15
2018-06-04T04:25:20.853Z,93.26
2018-06-04T04:27:48.237Z,93.62
2018-06-04T04:30:15.641Z,93.24
2018-06-04T04:32:43.113Z,93.73
2018-06-04T04:35:10.492Z,92.07
2018-06-04T04:37:37.841Z,92.65
2018-06-04T04:40:05.260Z,91.74
2018-06-04T04:42:32.662Z,91.38
2018-06-04T04:45:00.026Z,91.84
2018-06-04T04:47:27.463Z,91.61
2018-06-04T04:49:55.235Z,91.51
2018-06-04T04:52:22.972Z,91.26
2018-06-04T04:54:50.904Z,91.46
2018-06-04T04:57:18.632Z,91.79
2018-06-04T04:59:46.429Z,91.95
2018-06-04T05:02:13.923Z,91.78
2018-06-04T05:04:42.063Z,91.69
2018-06-04T05:07:10.283Z,91.29
2018-06-04T05:09:37.647Z,91.66
2018-06-04T05:12:05.068Z,91.09
2018-06-04T05:14:32.559Z,90.94
2018-06-04T05:16:59.992Z,90.64
2018-06-04T05:19:27.533Z,90.28
2018-06-04T05:21:55.109Z,90.37
2018-06-04T05:24:22.567Z,90.83
2018-06-04T05:26:50.476Z,90.30
2018-06-04T05:29:18.306Z,90.06
2018-06-04T05:31:45.759Z,89.78
2018-06-04T05:34:13.417Z,90.21
2018-06-04T05:36:40.818Z,90.24
2018-06-04T05:39:09.440Z,89.78
2018-06-04T05:41:36.810Z,89.16
2018-06-04T05:44:04.414Z,89.08
2018-06-04T05:46:31.961Z,88.68
2018-06-04T05:48:59.439Z,88.50
2018-06-04T05:51:26.895Z,87.91
2018-06-04T05:53:54.485Z,87.70
2018-06-04T05:56:22.179Z,87.17
2018-06-04T05:58:49.898Z,87.09
2018-06-04T06:01:17.420Z,86.65
2018-06-04T06:03:44.801Z,86.88
2018-06-04T06:06:12.164Z,86.62
2018-06-04T06:08:39.735Z,86.50
2018-06-04T06:11:07.211Z,87.17
2018-06-04T06:13:34.621Z,86.81
2018-06-04T06:16:02.340Z,86.61
2018-06-04T06:18:29.764Z,86.00
2018-06-04T06:20:57.814Z,86.31
2018-06-04T06:23:25.251Z,86.48
2018-06-04T06:25:52.962Z,86.12
2018-06-04T06:28:20.539Z,86.09
2018-06-04T06:30:47.998Z,85.61
2018-06-04T06:33:16.233Z,85.50
2018-06-04T06:35:43.616Z,85.12
2018-06-04T06:38:11.359Z,84.17
2018-06-04T06:40:39.065Z,84.13
2018-06-04T06:43:06.507Z,83.88
2018-06-04T06:45:34.594Z,84.29
2018-06-04T06:48:01.999Z,84.11
2018-06-04T06:50:29.579Z,84.20
2018-06-04T06:52:56.998Z,83.44
2018-06-04T06:55:24.449Z,83.54
2018-06-04T06:57:52.085Z,83.03
2018-06-04T07:00:19.554Z,83.82
2018-06-04T07:02:47.445Z,84.11
2018-06-04T07:05:14.898Z,84.15
2018-06-04T07:07:42.347Z,83.81
2018-06-04T07:10:10.780Z,82.65
2018-06-04T07:12:38.494Z,83.73
2018-06-04T07:15:05.898Z,83.52
2018-06-04T07:17:33.332Z,83.40
2018-06-04T07:20:00.754Z,83.47
2018-06-04T07:22:28.285Z,82.76
2018-06-04T07:24:55.765Z,82.42
2018-06-04T07:27:23.156Z,81.96
2018-06-04T07:29:50.625Z,82.03
2018-06-04T07:32:18.148Z,82.91
2018-06-04T07:34:46.647Z,83.39
2018-06-04T07:37:14.417Z,82.70
2018-06-04T07:39:41.968Z,82.97
2018-06-04T07:42:09.417Z,82.68
2018-06-04T07:44:36.810Z,81.64
2018-06-04T07:47:04.198Z,82.17
2018-06-04T07:49:31.607Z,81.07
2018-06-04T07:51:59.048Z,81.16
2018-06-04T07:54:27.152Z,81.65
2018-06-04T07:56:54.579Z,81.12
2018-06-04T07:59:22.182Z,80.56
2018-06-04T08:01:49.643Z,80.18
2018-06-04T08:04:17.055Z,80.16
2018-06-04T08:06:44.568Z,80.32
2018-06-04T08:09:12.269Z,79.50
2018-06-04T08:11:39.933Z,79.26
2018-06-04T08:14:07.560Z,79.00
2018-06-04T08:16:34.924Z,78.71
2018-06-04T08:19:02.343Z,78.44
2018-06-04T08:21:29.911Z,77.23
2018-06-04T08:23:57.370Z,77.63
2018-06-04T08:26:24.757Z,77.71
2018-06-04T08:28:52.155Z,78.12
2018-06-04T08:31:19.514Z,77.98
2018-06-04T08:33:46.952Z,76.75
2018-06-04T08:36:14.327Z,77.14
2018-06-04T08:38:41.733Z,76.81
2018-06-04T08:41:09.133Z,75.96
2018-06-04T08:43:36.757Z,75.86
2018-06-04T08:46:04.529Z,76.11
2018-06-04T08:48:31.927Z,76.40
2018-06-04T08:50:59.326Z,75.26
2018-06-04T08:53:26.779Z,75.20
2018-06-04T08:55:54.318Z,75.94
2018-06-04T08:58:21.806Z,75.40
2018-06-04T09:00:49.798Z,74.39
2018-06-04T09:03:17.319Z,74.16
2018-06-04T09:05:44.870Z,73.53
2018-06-04T09:08:12.323Z,73.75
2018-06-04T09:10:39.886Z,73.27
2018-06-04T09:13:07.394Z,73.13
2018-06-04T09:15:34.879Z,73.31
2018-06-04T09:18:02.315Z,74.61
2018-06-04T09:20:29.909Z,72.70
2018-06-04T09:22:57.404Z,74.44
2018-06-04T09:25:24.877Z,74.11
2018-06-04T09:27:52.280Z,73.99
2018-06-04T09:30:19.977Z,73.83
2018-06-04T09:32:47.476Z,73.46
2018-06-04T09:35:14.924Z,73.08
2018-06-04T09:37:42.443Z,73.04
2018-06-04T09:40:10.000Z,72.73
2018-06-04T09:42:37.495Z,70.61
2018-06-04T09:45:04.918Z,70.62
2018-06-04T09:48:36.508Z,72.29
2018-06-04T09:51:04.037Z,71.20
2018-06-04T09:53:31.697Z,71.97
2018-06-04T09:55:59.154Z,71.11
2018-06-04T09:58:26.574Z,71.57
2018-06-04T10:00:54.017Z,69.73
2018-06-04T10:03:21.428Z,70.90
2018-06-04T10:05:49.395Z,68.61
2018-06-04T10:08:16.860Z,69.18
2018-06-04T10:10:44.295Z,69.19
2018-06-04T10:13:11.776Z,69.66
2018-06-04T10:15:39.186Z,69.76
2018-06-04T10:18:06.918Z,68.63
2018-06-04T10:20:34.337Z,66.80
2018-06-04T10:23:01.870Z,67.46
2018-06-04T10:25:29.354Z,68.61
2018-06-04T10:27:56.792Z,68.80
2018-06-04T10:30:24.236Z,67.98
2018-06-04T10:32:51.684Z,67.80
2018-06-04T10:35:19.080Z,68.75
2018-06-04T10:37:46.493Z,67.48
2018-06-04T10:40:13.921Z,68.41
2018-06-04T10:42:41.361Z,68.56
2018-06-04T10:45:08.886Z,68.78
2018-06-04T10:47:36.535Z,67.15
2018-06-04T10:50:03.918Z,67.66
2018-06-04T10:52:31.332Z,66.91
2018-06-04T10:54:58.960Z,66.54
2018-06-04T10:57:26.433Z,66.02
2018-06-04T10:59:53.925Z,65.90
2018-06-04T11:02:21.384Z,65.70
2018-06-04T11:04:48.804Z,66.05
2018-06-04T11:07:16.195Z,63.87
2018-06-04T11:09:43.602Z,65.05
2018-06-04T11:12:11.054Z,62.93
2018-06-04T11:14:38.461Z,62.09
2018-06-04T11:17:05.899Z,62.12
2018-06-04T11:19:33.295Z,61.10
2018-06-04T11:22:00.682Z,61.15
2018-06-04T11:24:28.749Z,60.63
2018-06-04T11:26:56.258Z,61.09
2018-06-04T11:29:23.670Z,60.41
2018-06-04T11:31:51.686Z,60.45
2018-06-04T11:34:19.148Z,60.72
2018-06-04T11:36:46.594Z,61.39
2018-06-04T11:39:14.105Z,59.99
2018-06-04T11:41:41.583Z,58.89
2018-06-04T11:44:09.016Z,58.72
2018-06-04T11:46:36.487Z,58.78
2018-06-04T11:49:03.909Z,59.23
2018-06-04T11:51:31.492Z,59.65
2018-06-04T11:53:58.954Z,58.88
2018-06-04T11:56:26.567Z,58.06
2018-06-04T11:58:54.173Z,56.73
2018-06-04T12:01:21.670Z,57.92
2018-06-04T12:03:49.430Z,59.81
2018-06-04T12:06:16.977Z,57.81
2018-06-04T12:08:45.187Z,54.87
2018-06-04T12:11:12.545Z,52.50
2018-06-04T12:13:39.936Z,53.15
2018-06-04T12:16:07.277Z,55.25
2018-06-04T12:18:34.647Z,53.14
2018-06-04T12:21:02.031Z,55.79
2018-06-04T12:23:29.442Z,53.17
2018-06-04T12:25:56.850Z,51.14
2018-06-04T12:28:24.369Z,52.25
2018-06-04T12:30:51.845Z,54.17
2018-06-04T12:33:19.924Z,54.59
2018-06-04T12:35:47.380Z,56.01
2018-06-04T12:38:14.751Z,55.49
2018-06-04T12:40:42.122Z,56.05
2018-06-04T12:43:10.253Z,51.21
2018-06-04T12:45:39.009Z,48.68
2018-06-04T12:48:06.505Z,48.24
2018-06-04T12:50:33.917Z,47.56
2018-06-04T12:53:01.964Z,44.71
2018-06-04T12:55:29.421Z,45.24
2018-06-04T12:57:56.843Z,44.36
2018-06-04T13:00:24.245Z,43.91
2018-06-04T13:02:51.649Z,46.36
2018-06-04T13:05:19.025Z,45.33
2018-06-04T13:07:46.733Z,44.06
2018-06-04T13:10:14.278Z,44.68
2018-06-04T13:12:42.046Z,43.41
2018-06-04T13:15:09.501Z,43.95
2018-06-04T13:17:36.916Z,43.43
2018-06-04T13:20:04.425Z,40.71
2018-06-04T13:22:32.070Z,41.40
2018-06-04T13:24:59.450Z,43.91
2018-06-04T13:27:27.233Z,41.51
2018-06-04T13:29:54.842Z,42.17
2018-06-04T13:32:23.108Z,41.08
2018-06-04T13:34:58.206Z,39.73
2018-06-04T13:37:26.125Z,40.62
2018-06-04T13:39:53.639Z,39.52
2018-06-04T13:42:21.140Z,40.03
2018-06-04T13:44:48.896Z,39.35
2018-06-04T13:47:16.529Z,39.57
2018-06-04T13:49:44.092Z,39.39
2018-06-04T13:52:11.730Z,38.15
2018-06-04T13:54:39.175Z,38.63
2018-06-04T13:57:06.629Z,37.54
2018-06-04T13:59:34.422Z,38.04
2018-06-04T14:02:01.965Z,38.44
2018-06-04T14:04:29.412Z,39.01
2018-06-04T14:06:56.876Z,37.85
2018-06-04T14:09:24.452Z,36.97
2018-06-04T14:11:52.093Z,37.65
2018-06-04T14:14:19.991Z,38.15
2018-06-04T14:16:47.609Z,39.27
2018-06-04T14:19:15.115Z,40.04
2018-06-04T14:21:42.482Z,38.63
2018-06-04T14:24:10.078Z,38.80
2018-06-04T14:26:37.467Z,37.92
2018-06-04T14:29:04.845Z,37.72
2018-06-04T14:31:32.625Z,38.91
2018-06-04T14:34:00.166Z,39.58
2018-06-04T14:36:27.884Z,40.97
2018-06-04T14:38:55.841Z,39.50
2018-06-04T14:41:23.200Z,39.87
2018-06-04T14:43:50.653Z,41.49
2018-06-04T14:46:18.103Z,40.32
2018-06-04T14:48:45.505Z,39.41
2018-06-04T14:51:13.277Z,39.84
2018-06-04T14:53:40.657Z,39.33
2018-06-04T14:56:08.776Z,39.86
2018-06-04T14:58:36.456Z,38.53
2018-06-04T15:01:03.972Z,39.72
2018-06-04T15:03:31.449Z,40.52
2018-06-04T15:05:58.861Z,39.60
2018-06-04T15:08:26.269Z,41.79
2018-06-04T15:10:54.005Z,43.89
2018-06-04T15:13:22.130Z,43.19
2018-06-04T15:15:49.588Z,42.65
2018-06-04T15:18:18.201Z,41.37
2018-06-04T15:20:45.853Z,43.14
2018-06-04T15:23:13.592Z,43.08
2018-06-04T15:25:41.114Z,43.28
2018-06-04T15:28:08.787Z,41.82
2018-06-04T15:30:36.212Z,42.68
2018-06-04T15:33:03.652Z,42.26
2018-06-04T15:35:31.247Z,44.03
2018-06-04T15:37:58.945Z,46.56
2018-06-04T15:40:26.356Z,47.31
2018-06-04T15:42:53.989Z,48.83
2018-06-04T15:45:21.748Z,48.84
2018-06-04T15:47:49.298Z,47.12
2018-06-04T15:50:16.757Z,45.70
2018-06-04T15:52:44.117Z,45.16
2018-06-04T15:55:11.586Z,47.61
2018-06-04T15:57:39.493Z,45.55
2018-06-04T16:00:06.993Z,46.33
2018-06-04T16:02:35.335Z,47.25
2018-06-04T16:05:02.767Z,47.25
2018-06-04T16:07:30.368Z,48.10
2018-06-04T16:09:57.822Z,48.20
2018-06-04T16:12:25.369Z,50.19
2018-06-04T16:14:52.927Z,52.24
2018-06-04T16:17:20.522Z,55.61
2018-06-04T16:19:48.023Z,55.12
2018-06-04T16:22:15.453Z,55.27
2018-06-04T16:24:43.192Z,56.90
2018-06-04T16:27:10.537Z,55.94
2018-06-04T16:29:37.965Z,59.02
2018-06-04T16:32:05.371Z,60.70
2018-06-04T16:34:33.150Z,59.79
2018-06-04T16:37:00.955Z,61.18
2018-06-04T16:39:28.661Z,60.81
2018-06-04T16:41:56.157Z,61.84
2018-06-04T16:44:23.603Z,63.02
2018-06-04T16:46:51.008Z,64.73
2018-06-04T16:49:18.428Z,63.67
2018-06-04T16:51:45.858Z,63.33
2018-06-04T16:54:13.218Z,64.85
2018-06-04T16:56:40.629Z,64.36
2018-06-04T16:59:08.244Z,65.04
2018-06-04T17:01:35.615Z,64.38
2018-06-04T17:04:03.073Z,64.21
2018-06-04T17:06:30.729Z,65.82
2018-06-04T17:08:58.214Z,65.86
2018-06-04T17:11:26.070Z,65.91
2018-06-04T17:13:53.613Z,67.50
2018-06-04T17:16:21.020Z,66.67
2018-06-04T17:18:48.406Z,67.99
2018-06-04T17:21:15.799Z,68.15
2018-06-04T17:23:43.448Z,68.29
2018-06-04T17:26:10.847Z,68.69
2018-06-04T17:28:38.837Z,67.90
2018-06-04T17:31:06.323Z,67.94
2018-06-04T17:33:33.993Z,68.79
2018-06-04T17:36:01.639Z,68.68
2018-06-04T17:38:29.049Z,69.46
2018-06-04T17:40:56.503Z,70.47
2018-06-04T17:43:23.967Z,70.47
2018-06-04T17:45:51.410Z,70.63
2018-06-04T17:48:18.824Z,71.91
2018-06-04T17:50:46.304Z,71.43
2018-06-04T17:53:13.700Z,72.86
2018-06-04T17:55:41.363Z,72.29
2018-06-04T17:58:08.947Z,71.82
2018-06-04T18:00:36.397Z,71.72
2018-06-04T18:03:04.009Z,72.94
2018-06-04T18:05:31.355Z,73.21
2018-06-04T18:07:58.801Z,73.63
2018-06-04T18:10:26.267Z,74.88
2018-06-04T18:12:53.744Z,73.85
2018-06-04T18:15:21.251Z,72.10
2018-06-04T18:17:48.661Z,72.65
2018-06-04T18:20:16.050Z,72.20
2018-06-04T18:22:43.585Z,74.03
2018-06-04T18:25:11.073Z,72.30
2018-06-04T18:27:38.646Z,74.24
2018-06-04T18:30:06.101Z,74.83
2018-06-04T18:32:33.622Z,74.93
2018-06-04T18:35:01.038Z,76.13
2018-06-04T18:37:28.513Z,74.90
2018-06-04T18:39:55.942Z,75.04
2018-06-04T18:42:23.484Z,74.58
2018-06-04T18:44:50.926Z,75.12
2018-06-04T18:47:18.542Z,75.64
2018-06-04T18:49:46.006Z,74.96
2018-06-04T18:52:13.369Z,76.04
2018-06-04T18:54:40.766Z,76.20
2018-06-04T18:57:08.284Z,77.41
2018-06-04T18:59:35.830Z,77.08
2018-06-04T19:02:03.190Z,76.79
2018-06-04T19:04:31.247Z,77.10
2018-06-04T19:06:58.697Z,77.37
2018-06-04T19:09:26.106Z,77.32
2018-06-04T19:11:53.632Z,77.69
2018-06-04T19:14:21.150Z,76.62
2018-06-04T19:16:48.576Z,77.85
2018-06-04T19:19:16.005Z,78.53
2018-06-04T19:21:43.429Z,77.98
2018-06-04T19:24:10.813Z,77.24
2018-06-04T19:26:38.223Z,78.35
2018-06-04T19:29:05.754Z,77.54
2018-06-04T19:31:33.183Z,77.75
2018-06-04T19:34:00.606Z,78.52
2018-06-04T19:36:28.024Z,78.66
2018-06-04T19:38:55.396Z,79.00
2018-06-04T19:41:22.778Z,79.16
2018-06-04T19:43:50.211Z,78.55
2018-06-04T19:46:17.616Z,78.21
2018-06-04T19:48:45.616Z,80.12
2018-06-04T19:51:13.104Z,80.93
2018-06-04T19:53:40.696Z,79.79
2018-06-04T19:56:08.116Z,78.75
2018-06-04T19:58:35.549Z,78.23
2018-06-04T20:01:03.122Z,81.02
2018-06-04T20:03:30.693Z,80.98
2018-06-04T20:05:58.094Z,81.01
2018-06-04T20:08:25.532Z,81.91
2018-06-04T20:10:53.177Z,81.65
2018-06-04T20:13:20.567Z,80.44
2018-06-04T20:15:48.018Z,81.76
2018-06-04T20:18:15.499Z,82.50
2018-06-04T20:20:42.895Z,81.66
2018-06-04T20:23:10.291Z,81.56
2018-06-04T20:25:38.354Z,82.21
2018-06-04T20:28:05.730Z,82.24
2018-06-04T20:30:33.167Z,82.53
2018-06-04T20:33:00.633Z,81.63
2018-06-04T20:35:28.213Z,82.21
2018-06-04T20:37:55.684Z,81.55
2018-06-04T20:40:23.350Z,82.11
2018-06-04T20:42:51.465Z,81.96
2018-06-04T20:45:18.860Z,82.40
2018-06-04T20:47:46.360Z,82.21
2018-06-04T20:50:13.749Z,82.88
2018-06-04T20:52:41.625Z,81.08
2018-06-04T20:55:09.061Z,81.96
2018-06-04T20:57:36.544Z,81.77
2018-06-04T21:00:04.211Z,81.57
2018-06-04T21:02:31.612Z,81.12
2018-06-04T21:04:59.000Z,81.03
2018-06-04T21:07:26.656Z,81.11
2018-06-04T21:09:54.141Z,80.85
2018-06-04T21:12:22.749Z,80.87
2018-06-04T21:14:50.378Z,80.08
2018-06-04T21:17:17.949Z,79.51
2018-06-04T21:19:45.350Z,80.35
2018-06-04T21:22:12.766Z,80.85
2018-06-04T21:24:40.601Z,80.69
2018-06-04T21:27:08.117Z,80.48
2018-06-04T21:29:35.523Z,79.75
2018-06-04T21:32:02.939Z,80.21
2018-06-04T21:34:30.405Z,79.05
2018-06-04T21:36:57.904Z,80.05
2018-06-04T21:39:25.265Z,79.09
2018-06-04T21:41:52.865Z,79.59
2018-06-04T21:44:20.323Z,79.06
2018-06-04T21:46:47.695Z,80.18
2018-06-04T21:49:19.114Z,80.85
2018-06-04T21:51:46.535Z,81.20
2018-06-04T21:54:13.906Z,80.93
2018-06-04T21:56:41.408Z,81.06
2018-06-04T21:59:08.817Z,81.11
2018-06-04T22:01:36.297Z,81.01
2018-06-04T22:04:04.339Z,81.47
2018-06-04T22:06:31.710Z,80.86
2018-06-04T22:08:59.072Z,81.65
2018-06-04T22:11:27.266Z,82.08
2018-06-04T22:13:54.674Z,81.71
2018-06-04T22:16:22.131Z,81.57
2018-06-04T22:18:50.462Z,80.55
2018-06-04T22:21:17.822Z,81.15
2018-06-04T22:23:45.282Z,80.48
2018-06-04T22:26:12.677Z,81.16
2018-06-04T22:28:40.168Z,80.92
2018-06-04T22:31:07.657Z,80.57
2018-06-04T22:33:35.006Z,80.90
2018-06-04T22:36:02.438Z,80.73
2018-06-04T22:38:29.866Z,79.90
2018-06-04T22:40:57.253Z,80.28
2018-06-04T22:43:24.785Z,81.07
2018-06-04T22:45:52.178Z,80.61
2018-06-04T22:48:19.555Z,80.84
2018-06-04T22:50:46.953Z,81.12
2018-06-04T22:53:14.321Z,80.75
2018-06-04T22:55:42.377Z,80.35
2018-06-04T22:58:09.744Z,81.10
2018-06-04T23:00:37.190Z,80.33
2018-06-04T23:03:04.560Z,80.47
2018-06-04T23:05:31.982Z,80.48
2018-06-04T23:07:59.338Z,80.97
2018-06-04T23:10:26.704Z,81.82
2018-06-04T23:12:54.046Z,81.18
2018-06-04T23:15:21.495Z,82.01
2018-06-04T23:17:48.844Z,82.07
2018-06-04T23:20:16.237Z,82.09
2018-06-04T23:22:50.292Z,82.05
2018-06-04T23:25:17.686Z,82.10
2018-06-04T23:27:45.379Z,80.65
2018-06-04T23:30:12.782Z,80.99
2018-06-04T23:32:40.145Z,81.55
2018-06-04T23:35:07.554Z,81.65
2018-06-04T23:37:34.953Z,81.76
2018-06-04T23:40:02.308Z,81.69
2018-06-04T23:42:29.793Z,81.32
2018-06-04T23:44:57.145Z,81.14
2018-06-04T23:47:24.559Z,81.22
2018-06-04T23:49:52.052Z,80.18
2018-06-04T23:52:19.451Z,80.58
2018-06-04T23:54:47.125Z,80.51
2018-06-04T23:57:14.569Z,80.11
2018-06-04T23:59:43.005Z,80.10
